KPAO Airport (Palo Alto) Information

FAA: PAO - ICAO: KPAO

KPAO Airport Location

State California
County Santa Clara
City Palo Alto
KPAO Airport is 0 miles east of Palo Alto, CA.
Latitude 37-27-40.0000N
Longitude 122-06-54.2000W
Elevation 6ft

KPAO Airport METARs

METAR KPAO 072047Z VRB04KT 10SM FEW040 13/07 A3022
Altimeter 30.22"
Temperature 13.0°C (55.4°F)
Wind 0° at 4KT
Clouds few at 4,000ft
Visibility 10.0mi
Time observed: 2022-12-07T20:47:00Z

KPAO Airport Details

Status Operational
Activation April 1940
Ownership Public
Usage Public
Chart SAN FRANCISCO
ATC on-site Yes
Beacon schedule sunset-sunrise
Beacon color clear green

KPAO Airport Contacts

Owner CITY OF PALO ALTO
Owner address 250 HAMILTON AVENUE, PALO ALTO, CA 94301-2531
Owner phone (650) 329-2444
Manager STEVE BALLARD
Manager address 1150 N INDIAN CANYON, PALM SPRINGS, CA 92262
Manager phone (760) 323-6510

KPAO Airport (Palo Alto) Radio Frequencies

KPAO (Airport) Radio Frequencies

UNICOM 122.95
Common traffic advisory frequency (CTAF) 118.6